createdAt,value
2019-03-20T00:01:10.221Z,4.12
2019-03-20T00:03:38.988Z,3.99
2019-03-20T00:06:07.588Z,3.93
2019-03-20T00:08:36.139Z,3.92
2019-03-20T00:11:05.192Z,3.92
2019-03-20T00:13:33.815Z,3.78
2019-03-20T00:16:02.379Z,4.05
2019-03-20T00:18:31.026Z,4.06
2019-03-20T00:20:59.760Z,4.02
2019-03-20T00:23:28.502Z,4.02
2019-03-20T00:25:57.227Z,4.06
2019-03-20T00:28:25.956Z,4.19
2019-03-20T00:30:54.623Z,4.22
2019-03-20T00:33:23.384Z,4.21
2019-03-20T00:35:52.007Z,4.22
2019-03-20T00:38:20.750Z,4.29
2019-03-20T00:40:49.522Z,4.46
2019-03-20T00:43:18.344Z,4.52
2019-03-20T00:45:46.978Z,4.73
2019-03-20T00:48:15.571Z,4.78
2019-03-20T00:50:44.113Z,4.76
2019-03-20T00:53:12.784Z,4.80
2019-03-20T00:55:41.489Z,4.86
2019-03-20T00:58:10.223Z,4.86
2019-03-20T01:00:38.994Z,4.97
2019-03-20T01:03:07.725Z,5.14
2019-03-20T01:05:36.426Z,5.08
2019-03-20T01:08:05.153Z,5.06
2019-03-20T01:10:33.844Z,5.15
2019-03-20T01:13:02.528Z,5.19
2019-03-20T01:15:31.170Z,5.20
2019-03-20T01:17:59.883Z,5.00
2019-03-20T01:20:28.575Z,4.84
2019-03-20T01:22:57.272Z,4.70
2019-03-20T01:25:25.965Z,4.59
2019-03-20T01:27:54.578Z,4.66
2019-03-20T01:30:33.892Z,4.52
2019-03-20T01:33:05.084Z,4.49
2019-03-20T01:35:33.748Z,4.69
2019-03-20T01:38:02.487Z,4.73
2019-03-20T01:40:31.150Z,4.74
2019-03-20T01:42:59.815Z,4.70
2019-03-20T01:45:28.448Z,4.61
2019-03-20T01:47:57.204Z,4.51
2019-03-20T01:50:26.137Z,4.50
2019-03-20T01:52:54.875Z,4.69
2019-03-20T01:55:23.659Z,4.50
2019-03-20T01:57:52.319Z,4.44
2019-03-20T02:00:21.064Z,4.35
2019-03-20T02:02:49.884Z,4.45
2019-03-20T02:05:18.803Z,4.38
2019-03-20T02:07:47.502Z,4.22
2019-03-20T02:10:18.223Z,4.11
2019-03-20T02:12:46.859Z,4.18
2019-03-20T02:15:19.298Z,4.09
2019-03-20T02:17:48.130Z,4.14
2019-03-20T02:20:19.204Z,4.15
2019-03-20T02:22:47.942Z,4.26
2019-03-20T02:25:16.583Z,4.10
2019-03-20T02:27:45.305Z,4.00
2019-03-20T02:30:16.893Z,3.91
2019-03-20T02:32:45.629Z,3.92
2019-03-20T02:35:14.545Z,4.07
2019-03-20T02:37:43.170Z,4.00
2019-03-20T02:40:16.205Z,4.06
2019-03-20T02:42:44.922Z,4.05
2019-03-20T02:45:17.831Z,4.02
2019-03-20T02:47:46.633Z,4.08
2019-03-20T02:50:16.045Z,4.22
2019-03-20T02:52:44.761Z,4.13
2019-03-20T02:55:14.314Z,4.13
2019-03-20T02:57:42.973Z,4.25
2019-03-20T03:00:17.416Z,4.24
2019-03-20T03:02:46.322Z,4.14
2019-03-20T03:05:16.230Z,4.02
2019-03-20T03:07:45.061Z,3.97
2019-03-20T03:10:16.605Z,3.96
2019-03-20T03:12:45.264Z,3.95
2019-03-20T03:15:16.564Z,3.90
2019-03-20T03:17:45.293Z,3.87
2019-03-20T03:20:16.639Z,3.88
2019-03-20T03:22:45.388Z,3.87
2019-03-20T03:25:15.370Z,3.93
2019-03-20T03:27:44.097Z,4.00
2019-03-20T03:30:15.061Z,4.05
2019-03-20T03:32:43.716Z,4.18
2019-03-20T03:35:17.082Z,4.13
2019-03-20T03:37:42.929Z,4.01
2019-03-20T03:40:17.410Z,4.02
2019-03-20T03:42:46.159Z,4.02
2019-03-20T03:45:18.134Z,3.94
2019-03-20T03:47:46.847Z,3.92
2019-03-20T03:50:15.787Z,3.97
2019-03-20T03:52:44.493Z,4.04
2019-03-20T03:55:15.826Z,3.97
2019-03-20T03:57:45.275Z,3.97
2019-03-20T04:00:20.732Z,4.17
2019-03-20T04:02:49.371Z,4.27
2019-03-20T04:05:18.183Z,4.26
2019-03-20T04:07:46.890Z,4.04
2019-03-20T04:10:17.853Z,3.99
2019-03-20T04:12:46.820Z,4.04
2019-03-20T04:15:16.935Z,3.67
2019-03-20T04:17:45.627Z,3.60
2019-03-20T04:20:20.015Z,3.70
2019-03-20T04:22:48.758Z,3.76
2019-03-20T04:25:17.744Z,3.83
2019-03-20T04:27:46.438Z,3.61
2019-03-20T04:30:19.081Z,3.45
2019-03-20T04:32:47.817Z,3.36
2019-03-20T04:35:16.572Z,3.37
2019-03-20T04:37:45.245Z,3.40
2019-03-20T04:40:18.164Z,3.53
2019-03-20T04:42:46.832Z,3.83
2019-03-20T04:45:17.149Z,4.08
2019-03-20T04:47:45.870Z,4.25
2019-03-20T04:50:16.220Z,4.19
2019-03-20T04:52:44.949Z,4.19
2019-03-20T04:55:13.777Z,4.13
2019-03-20T04:57:42.416Z,4.17
2019-03-20T05:00:17.798Z,4.22
2019-03-20T05:02:46.560Z,4.36
2019-03-20T05:05:15.357Z,4.43
2019-03-20T05:07:44.079Z,4.59
2019-03-20T05:10:15.322Z,4.71
2019-03-20T05:12:44.039Z,4.89
2019-03-20T05:15:14.249Z,5.01
2019-03-20T05:17:44.691Z,5.09
2019-03-20T05:20:18.253Z,5.16
2019-03-20T05:22:46.852Z,5.28
2019-03-20T05:25:15.529Z,5.36
2019-03-20T05:27:44.303Z,5.38
2019-03-20T05:30:15.781Z,5.44
2019-03-20T05:32:44.486Z,5.42
2019-03-20T05:35:13.170Z,5.44
2019-03-20T05:37:42.015Z,5.51
2019-03-20T05:40:12.759Z,5.57
2019-03-20T05:42:41.375Z,5.65
2019-03-20T05:45:12.948Z,5.68
2019-03-20T05:47:41.706Z,5.67
2019-03-20T05:50:13.036Z,5.75
2019-03-20T05:52:41.684Z,5.78
2019-03-20T05:55:10.432Z,5.73
2019-03-20T05:57:39.132Z,5.80
2019-03-20T06:00:17.580Z,5.82
2019-03-20T06:02:46.272Z,5.80
2019-03-20T06:05:15.043Z,5.86
2019-03-20T06:07:43.788Z,5.86
2019-03-20T06:10:17.277Z,5.86
2019-03-20T06:12:45.930Z,5.88
2019-03-20T06:15:15.210Z,5.92
2019-03-20T06:17:46.617Z,6.00
2019-03-20T06:20:16.973Z,6.03
2019-03-20T06:22:45.682Z,6.07
2019-03-20T06:25:16.369Z,6.08
2019-03-20T06:27:44.959Z,6.15
2019-03-20T06:30:15.568Z,6.18
2019-03-20T06:32:44.352Z,6.26
2019-03-20T06:35:13.240Z,6.27
2019-03-20T06:37:41.857Z,6.36
2019-03-20T06:40:17.519Z,6.40
2019-03-20T06:42:46.233Z,6.45
2019-03-20T06:45:22.466Z,6.43
2019-03-20T06:47:51.129Z,6.52
2019-03-20T06:50:21.699Z,6.56
2019-03-20T06:52:50.473Z,6.66
2019-03-20T06:55:20.618Z,6.68
2019-03-20T06:57:49.453Z,6.70
2019-03-20T07:00:35.864Z,6.74
2019-03-20T07:03:27.172Z,6.74
2019-03-20T07:06:16.396Z,6.55
2019-03-20T07:08:59.646Z,6.85
2019-03-20T07:11:27.030Z,6.94
2019-03-20T07:13:55.656Z,7.00
2019-03-20T07:16:24.362Z,7.15
2019-03-20T07:18:53.024Z,7.25
2019-03-20T07:21:21.663Z,7.27
2019-03-20T07:23:50.233Z,7.30
2019-03-20T07:26:18.992Z,7.30
2019-03-20T07:28:47.693Z,7.31
2019-03-20T07:31:16.322Z,7.43
2019-03-20T07:33:44.955Z,7.37
2019-03-20T07:36:14.116Z,7.41
2019-03-20T07:38:42.990Z,7.53
2019-03-20T07:41:11.736Z,7.67
2019-03-20T07:43:40.414Z,7.63
2019-03-20T07:46:09.063Z,7.66
2019-03-20T07:48:37.763Z,7.71
2019-03-20T07:51:06.509Z,7.66
2019-03-20T07:53:35.143Z,7.75
2019-03-20T07:56:05.080Z,7.74
2019-03-20T07:58:33.723Z,7.44
2019-03-20T08:01:02.456Z,7.84
2019-03-20T08:03:31.315Z,7.84
2019-03-20T08:06:00.050Z,7.92
2019-03-20T08:08:28.785Z,7.96
2019-03-20T08:10:57.461Z,7.93
2019-03-20T08:13:26.133Z,8.03
2019-03-20T08:15:54.960Z,8.01
2019-03-20T08:18:23.705Z,8.03
2019-03-20T08:20:52.283Z,8.02
2019-03-20T08:23:21.020Z,8.15
2019-03-20T08:25:49.664Z,8.25
2019-03-20T08:28:18.435Z,8.67
2019-03-20T08:30:47.237Z,8.57
2019-03-20T08:33:15.939Z,8.68
2019-03-20T08:35:44.784Z,8.69
2019-03-20T08:38:18.194Z,8.73
2019-03-20T08:40:43.832Z,8.63
2019-03-20T08:43:12.689Z,8.61
2019-03-20T08:45:41.390Z,8.54
2019-03-20T08:48:10.217Z,8.58
2019-03-20T08:50:38.833Z,8.67
2019-03-20T08:53:07.482Z,8.76
2019-03-20T08:55:36.189Z,8.77
2019-03-20T08:58:05.153Z,8.90
2019-03-20T09:00:33.795Z,8.93
2019-03-20T09:03:02.530Z,8.83
2019-03-20T09:05:31.267Z,8.81
2019-03-20T09:08:00.030Z,8.89
2019-03-20T09:10:28.721Z,8.82
2019-03-20T09:12:57.270Z,8.86
2019-03-20T09:15:26.155Z,8.86
2019-03-20T09:17:54.861Z,8.88
2019-03-20T09:20:25.665Z,8.82
2019-03-20T09:22:54.348Z,8.83
2019-03-20T09:25:25.761Z,8.90
2019-03-20T09:27:54.509Z,8.96
2019-03-20T09:30:27.707Z,8.95
2019-03-20T09:32:56.330Z,9.06
2019-03-20T09:35:25.058Z,9.02
2019-03-20T09:37:53.722Z,9.06
2019-03-20T09:40:24.942Z,9.08
2019-03-20T09:42:53.588Z,9.13
2019-03-20T09:45:26.849Z,9.15
2019-03-20T09:47:55.612Z,9.19
2019-03-20T09:50:24.941Z,9.29
2019-03-20T09:52:54.355Z,9.39
2019-03-20T09:55:23.040Z,9.51
2019-03-20T09:57:51.803Z,9.54
2019-03-20T10:00:25.831Z,9.56
2019-03-20T10:02:54.505Z,9.66
2019-03-20T10:05:23.168Z,9.68
2019-03-20T10:07:51.869Z,9.66
2019-03-20T10:10:32.146Z,9.56
2019-03-20T10:13:00.793Z,9.50
2019-03-20T10:15:31.379Z,9.55
2019-03-20T10:18:00.093Z,9.69
2019-03-20T10:20:28.859Z,9.76
2019-03-20T10:22:57.573Z,9.71
2019-03-20T10:25:26.196Z,9.75
2019-03-20T10:27:54.916Z,9.83
2019-03-20T10:30:28.123Z,9.98
2019-03-20T10:32:56.905Z,10.08
2019-03-20T10:35:25.602Z,10.08
2019-03-20T10:37:54.229Z,10.09
2019-03-20T10:40:29.070Z,10.02
2019-03-20T10:42:57.947Z,10.11
2019-03-20T10:45:28.225Z,10.08
2019-03-20T10:47:57.349Z,10.17
2019-03-20T10:50:31.584Z,10.23
2019-03-20T10:53:00.346Z,10.33
2019-03-20T10:55:29.094Z,10.46
2019-03-20T10:57:57.736Z,10.43
2019-03-20T11:00:28.544Z,10.34
2019-03-20T11:02:57.334Z,10.37
2019-03-20T11:05:26.054Z,10.28
2019-03-20T11:07:54.810Z,10.21
2019-03-20T11:10:25.291Z,10.21
2019-03-20T11:12:54.163Z,10.29
2019-03-20T11:15:25.347Z,10.29
2019-03-20T11:17:54.027Z,10.38
2019-03-20T11:20:25.326Z,10.43
2019-03-20T11:23:07.986Z,10.29
2019-03-20T11:25:49.522Z,10.18
2019-03-20T11:28:31.674Z,10.12
2019-03-20T11:31:01.005Z,10.10
2019-03-20T11:33:29.693Z,10.09
2019-03-20T11:36:07.660Z,10.09
2019-03-20T11:38:36.905Z,10.06
2019-03-20T11:41:06.810Z,10.07
2019-03-20T11:43:37.115Z,10.22
2019-03-20T11:46:05.860Z,10.25
2019-03-20T11:48:34.607Z,10.43
2019-03-20T11:51:03.367Z,10.42
2019-03-20T11:53:32.073Z,10.54
2019-03-20T11:56:00.780Z,10.51
2019-03-20T11:58:29.519Z,10.61
2019-03-20T12:00:58.374Z,10.62
2019-03-20T12:03:27.114Z,10.67
2019-03-20T12:05:55.805Z,10.67
2019-03-20T12:08:24.512Z,10.76
2019-03-20T12:10:53.249Z,10.69
2019-03-20T12:13:22.008Z,10.72
2019-03-20T12:15:50.667Z,10.74
2019-03-20T12:18:19.376Z,10.79
2019-03-20T12:20:48.296Z,10.83
2019-03-20T12:23:17.003Z,10.88
2019-03-20T12:25:45.625Z,10.86
2019-03-20T12:28:14.516Z,10.92
2019-03-20T12:30:43.476Z,11.00
2019-03-20T12:33:12.196Z,10.95
2019-03-20T12:35:46.533Z,10.91
2019-03-20T12:38:15.675Z,10.88
2019-03-20T12:40:44.412Z,10.87
2019-03-20T12:43:13.275Z,10.85
2019-03-20T12:45:42.057Z,10.90
2019-03-20T12:48:16.849Z,10.95
2019-03-20T12:50:45.577Z,10.88
2019-03-20T12:53:20.187Z,10.86
2019-03-20T12:55:48.920Z,10.81
2019-03-20T12:58:17.732Z,10.81
2019-03-20T13:03:16.791Z,10.86
2019-03-20T13:05:45.590Z,10.91
2019-03-20T13:08:14.476Z,10.99
2019-03-20T13:10:43.179Z,11.12
2019-03-20T13:13:12.066Z,11.15
2019-03-20T13:15:40.923Z,11.32
2019-03-20T13:18:09.663Z,11.30
2019-03-20T13:20:38.578Z,11.30
2019-03-20T13:23:22.612Z,11.38
2019-03-20T13:25:51.784Z,11.36
2019-03-20T13:28:21.347Z,11.39
2019-03-20T13:30:56.965Z,11.30
2019-03-20T13:33:26.344Z,11.15
2019-03-20T13:38:47.900Z,11.03
2019-03-20T13:41:16.624Z,11.10
2019-03-20T13:43:45.263Z,11.10
2019-03-20T13:46:14.090Z,11.14
2019-03-20T13:48:42.766Z,11.15
2019-03-20T13:51:11.440Z,11.12
2019-03-20T13:53:40.193Z,11.17
2019-03-20T13:56:08.858Z,11.17
2019-03-20T13:58:37.620Z,11.15
2019-03-20T14:01:06.483Z,11.14
2019-03-20T14:03:35.185Z,11.21
2019-03-20T14:06:04.088Z,11.17
2019-03-20T14:08:32.857Z,11.19
2019-03-20T14:11:01.497Z,11.24
2019-03-20T14:13:30.224Z,11.27
2019-03-20T14:15:58.999Z,11.22
2019-03-20T14:18:27.722Z,11.17
2019-03-20T14:20:56.505Z,11.19
2019-03-20T14:23:25.464Z,11.16
2019-03-20T14:25:54.148Z,11.18
2019-03-20T14:28:22.830Z,11.19
2019-03-20T14:30:51.538Z,11.21
2019-03-20T14:33:20.244Z,11.19
2019-03-20T14:35:48.999Z,11.18
2019-03-20T14:38:17.866Z,11.15
2019-03-20T14:40:46.978Z,11.13
2019-03-20T14:43:15.948Z,11.12
2019-03-20T14:45:47.392Z,11.07
2019-03-20T14:48:16.254Z,11.09
2019-03-20T14:50:53.159Z,11.08
2019-03-20T14:53:22.273Z,11.02
2019-03-20T14:55:55.043Z,11.11
2019-03-20T14:58:24.060Z,11.15
2019-03-20T15:00:54.726Z,11.22
2019-03-20T15:03:24.016Z,11.24
2019-03-20T15:05:52.756Z,11.25
2019-03-20T15:08:22.077Z,11.33
2019-03-20T15:10:50.883Z,11.30
2019-03-20T15:13:19.568Z,11.35
2019-03-20T15:15:54.214Z,11.41
2019-03-20T15:18:22.921Z,11.44
2019-03-20T15:20:51.707Z,11.58
2019-03-20T15:23:20.425Z,11.67
2019-03-20T15:25:49.617Z,11.74
2019-03-20T15:28:18.478Z,11.79
2019-03-20T15:30:47.180Z,11.69
2019-03-20T15:33:15.906Z,11.78
2019-03-20T15:35:44.552Z,11.75
2019-03-20T15:38:13.371Z,11.87
2019-03-20T15:40:42.079Z,11.81
2019-03-20T15:43:10.841Z,11.75
2019-03-20T15:45:39.606Z,11.55
2019-03-20T15:48:08.303Z,11.51
2019-03-20T15:50:37.148Z,11.48
2019-03-20T15:53:06.022Z,11.49
2019-03-20T15:55:36.571Z,11.54
2019-03-20T15:58:05.885Z,11.48
2019-03-20T16:00:34.643Z,11.49
2019-03-20T16:03:09.538Z,11.55
2019-03-20T16:05:38.261Z,11.49
2019-03-20T16:08:06.971Z,11.50
2019-03-20T16:10:35.864Z,11.46
2019-03-20T16:13:05.361Z,11.42
2019-03-20T16:15:34.098Z,11.37
2019-03-20T16:18:02.953Z,11.38
2019-03-20T16:20:31.684Z,11.39
2019-03-20T16:23:00.472Z,11.30
2019-03-20T16:25:29.532Z,11.28
2019-03-20T16:27:58.375Z,11.06
2019-03-20T16:30:29.390Z,11.25
2019-03-20T16:32:59.041Z,11.19
2019-03-20T16:35:29.780Z,11.21
2019-03-20T16:37:58.489Z,11.21
2019-03-20T16:40:29.483Z,11.22
2019-03-20T16:42:58.157Z,11.19
2019-03-20T16:45:29.306Z,11.13
2019-03-20T16:48:04.233Z,11.10
2019-03-20T16:50:32.983Z,11.15
2019-03-20T16:53:01.734Z,11.09
2019-03-20T16:55:30.485Z,11.11
2019-03-20T16:57:59.225Z,11.17
2019-03-20T17:00:33.323Z,11.17
2019-03-20T17:03:07.911Z,11.09
2019-03-20T17:05:36.868Z,11.09
2019-03-20T17:08:05.600Z,11.07
2019-03-20T17:10:42.589Z,11.07
2019-03-20T17:13:11.329Z,11.09
2019-03-20T17:15:42.673Z,11.03
2019-03-20T17:18:11.498Z,11.06
2019-03-20T17:20:42.113Z,11.07
2019-03-20T17:23:10.936Z,11.05
2019-03-20T17:25:39.636Z,11.08
2019-03-20T17:28:09.811Z,11.02
2019-03-20T17:30:40.826Z,10.98
2019-03-20T17:33:09.570Z,11.00
2019-03-20T17:35:38.391Z,10.97
2019-03-20T17:38:07.494Z,10.99
2019-03-20T17:40:36.796Z,10.93
2019-03-20T17:43:06.135Z,10.95
2019-03-20T17:45:35.610Z,10.89
2019-03-20T17:48:05.843Z,10.92
2019-03-20T17:50:37.762Z,10.87
2019-03-20T17:53:06.472Z,10.89
2019-03-20T17:55:35.157Z,10.85
2019-03-20T17:58:04.209Z,10.84
2019-03-20T18:00:43.962Z,10.85
2019-03-20T18:03:12.774Z,10.85
2019-03-20T18:05:41.444Z,10.87
2019-03-20T18:08:10.390Z,10.84
2019-03-20T18:10:39.053Z,10.81
2019-03-20T18:13:09.212Z,10.86
2019-03-20T18:15:37.851Z,10.86
2019-03-20T18:18:08.517Z,10.82
2019-03-20T18:20:38.868Z,10.84
2019-03-20T18:23:08.646Z,10.81
2019-03-20T18:25:37.481Z,10.84
2019-03-20T18:28:06.319Z,10.85
2019-03-20T18:30:38.197Z,10.84
2019-03-20T18:33:06.888Z,10.83
2019-03-20T18:35:35.551Z,10.82
2019-03-20T18:38:06.507Z,10.80
2019-03-20T18:40:35.346Z,10.70
2019-03-20T18:43:04.006Z,10.80
2019-03-20T18:45:32.698Z,10.81
2019-03-20T18:48:01.601Z,10.81
2019-03-20T18:50:30.420Z,10.86
2019-03-20T18:52:59.356Z,10.79
2019-03-20T18:55:28.989Z,10.85
2019-03-20T18:57:58.575Z,10.88
2019-03-20T19:00:33.063Z,10.80
2019-03-20T19:03:14.063Z,10.86
2019-03-20T19:05:51.713Z,10.81
2019-03-20T19:08:20.416Z,10.82
2019-03-20T19:10:49.190Z,10.86
2019-03-20T19:13:18.023Z,10.82
2019-03-20T19:15:46.716Z,10.77
2019-03-20T19:18:15.513Z,10.78
2019-03-20T19:20:44.330Z,10.77
2019-03-20T19:23:13.037Z,10.78
2019-03-20T19:25:41.654Z,10.82
2019-03-20T19:28:10.211Z,10.82
2019-03-20T19:30:38.977Z,10.83
2019-03-20T19:33:07.636Z,10.75
2019-03-20T19:35:36.442Z,10.78
2019-03-20T19:38:05.820Z,10.73
2019-03-20T19:40:34.435Z,10.73
2019-03-20T19:43:03.815Z,10.69
2019-03-20T19:45:32.618Z,10.76
2019-03-20T19:48:01.803Z,10.71
2019-03-20T19:50:30.615Z,10.74
2019-03-20T19:52:59.826Z,10.79
2019-03-20T19:55:29.309Z,10.71
2019-03-20T19:57:58.002Z,10.68
2019-03-20T20:00:28.314Z,10.70
2019-03-20T20:02:57.791Z,10.73
2019-03-20T20:05:26.414Z,10.69
2019-03-20T20:07:59.866Z,10.74
2019-03-20T20:10:28.794Z,10.73
2019-03-20T20:12:57.875Z,10.68
2019-03-20T20:15:31.580Z,10.65
2019-03-20T20:18:00.430Z,10.65
2019-03-20T20:20:37.050Z,10.68
2019-03-20T20:23:07.925Z,10.68
2019-03-20T20:25:37.388Z,10.69
2019-03-20T20:28:07.466Z,10.69
2019-03-20T20:30:36.246Z,10.71
2019-03-20T20:33:05.289Z,10.67
2019-03-20T20:35:46.240Z,10.53
2019-03-20T20:38:29.529Z,10.65
2019-03-20T20:40:59.453Z,10.66
2019-03-20T20:43:28.344Z,10.67
2019-03-20T20:45:57.197Z,10.64
2019-03-20T20:48:25.926Z,10.66
2019-03-20T20:50:54.503Z,10.66
2019-03-20T20:53:23.154Z,10.72
2019-03-20T20:55:51.846Z,10.72
2019-03-20T20:58:20.525Z,10.70
2019-03-20T21:00:49.747Z,10.71
2019-03-20T21:03:18.757Z,10.72
2019-03-20T21:05:47.577Z,10.67
2019-03-20T21:08:16.294Z,10.66
2019-03-20T21:10:45.997Z,10.68
2019-03-20T21:13:15.366Z,10.70
2019-03-20T21:15:46.902Z,10.67
2019-03-20T21:18:21.674Z,10.66
2019-03-20T21:20:50.505Z,10.65
2019-03-20T21:23:40.836Z,10.66
2019-03-20T21:26:31.695Z,10.69
2019-03-20T21:29:35.754Z,10.74
2019-03-20T21:32:08.947Z,10.71
2019-03-20T21:34:58.886Z,10.66
2019-03-20T21:37:36.496Z,10.69
2019-03-20T21:40:09.305Z,10.68
2019-03-20T21:43:09.418Z,10.34
2019-03-20T21:45:56.073Z,10.62
2019-03-20T21:48:24.780Z,10.62
2019-03-20T21:50:56.447Z,10.63
2019-03-20T21:53:50.590Z,10.60
2019-03-20T21:56:37.485Z,10.59
2019-03-20T21:59:30.855Z,10.58
2019-03-20T22:02:18.768Z,10.65
2019-03-20T22:04:47.448Z,10.67
2019-03-20T22:07:16.163Z,10.60
2019-03-20T22:09:56.657Z,10.62
2019-03-20T22:12:39.991Z,10.61
2019-03-20T22:15:23.424Z,10.56
2019-03-20T22:18:17.440Z,10.55
2019-03-20T22:21:07.221Z,10.64
2019-03-20T22:23:59.678Z,10.63
2019-03-20T22:26:50.777Z,10.57
2019-03-20T22:29:27.325Z,10.56
2019-03-20T22:32:23.116Z,10.59
2019-03-20T22:35:27.996Z,10.54
2019-03-20T22:37:59.324Z,10.52
2019-03-20T22:40:47.279Z,10.54
2019-03-20T22:43:30.039Z,10.61
2019-03-20T22:46:17.453Z,10.55
2019-03-20T22:48:57.578Z,10.52
2019-03-20T22:51:44.212Z,10.55
2019-03-20T22:54:31.008Z,10.59
2019-03-20T22:57:08.338Z,10.61
2019-03-20T22:59:37.029Z,10.55
2019-03-20T23:02:28.030Z,10.48
2019-03-20T23:04:59.571Z,10.45
2019-03-20T23:07:30.177Z,10.45
2019-03-20T23:09:58.873Z,10.46
2019-03-20T23:12:27.562Z,10.46
2019-03-20T23:14:56.320Z,10.42
2019-03-20T23:17:25.063Z,10.40
2019-03-20T23:19:53.897Z,10.40
2019-03-20T23:22:22.632Z,10.41
2019-03-20T23:24:51.271Z,10.45
2019-03-20T23:27:23.214Z,10.48
2019-03-20T23:29:51.858Z,10.23
2019-03-20T23:32:20.602Z,10.20
2019-03-20T23:34:49.264Z,10.01
2019-03-20T23:37:17.966Z,9.89
2019-03-20T23:39:46.660Z,9.92
2019-03-20T23:42:15.398Z,9.70
2019-03-20T23:44:44.242Z,9.55
2019-03-20T23:47:12.900Z,9.42
2019-03-20T23:49:41.607Z,9.28
2019-03-20T23:52:10.375Z,9.11
2019-03-20T23:54:46.565Z,9.13
2019-03-20T23:57:16.863Z,9.10
2019-03-20T23:59:45.484Z,9.09
